Terminal Aerodrome Forecast
Issued by NWS

Home | Current Version | Previous Version | Text Only | Print | Product List | Glossary On
Versions: 1 2 3 4 5 6 7 8 9 10 11 12 13 14 15
000
FTUS43 KABR 230500
TAFATY
TAF
KATY 230520Z 2306/2406 13014G24KT P6SM BKN100
      TEMPO 2307/2309 P6SM -SHRA
     FM231000 14024G34KT P6SM BKN100
     FM231500 14030G40KT P6SM SCT030 BKN150
     FM232200 16019KT P6SM BKN035=

USA.gov is the U.S. government's official web portal to all federal, state and local government web resources and services.